sensor_id;sensor_type;location;lat;lon;timestamp;pressure;altitude;pressure_sealevel;temperature;humidity
19845;BME280;10083;51.038;7.012;2023-01-15T17:48:21;116753.44;;;6.58;100.00
19845;BME280;10083;51.038;7.012;2023-01-15T18:08:58;121385.94;;;6.68;100.00
19845;BME280;10083;51.038;7.012;2023-01-15T18:11:39;121330.31;;;6.67;100.00
19845;BME280;10083;51.038;7.012;2023-01-15T18:14:15;121425.88;;;6.75;100.00
19845;BME280;10083;51.038;7.012;2023-01-15T18:16:48;121409.91;;;6.70;100.00
19845;BME280;10083;51.038;7.012;2023-01-15T18:19:41;121555.81;;;6.77;100.00
19845;BME280;10083;51.038;7.012;2023-01-15T18:22:12;121820.84;;;6.97;100.00
19845;BME280;10083;51.038;7.012;2023-01-15T18:25:06;121860.44;;;6.98;100.00
19845;BME280;10083;51.038;7.012;2023-01-15T18:27:43;122076.59;;;7.01;100.00
19845;BME280;10083;51.038;7.012;2023-01-15T18:30:23;121992.09;;;6.99;100.00
19845;BME280;10083;51.038;7.012;2023-01-15T18:32:53;121931.53;;;7.02;100.00
19845;BME280;10083;51.038;7.012;2023-01-15T18:35:31;122080.28;;;7.07;100.00
19845;BME280;10083;51.038;7.012;2023-01-15T18:38:38;122080.81;;;7.08;100.00
19845;BME280;10083;51.038;7.012;2023-01-15T18:41:15;122117.16;;;7.13;100.00
19845;BME280;10083;51.038;7.012;2023-01-15T18:44:03;122220.91;;;7.21;100.00
19845;BME280;10083;51.038;7.012;2023-01-15T18:47:00;122133.66;;;7.19;100.00
19845;BME280;10083;51.038;7.012;2023-01-15T18:49:39;122048.16;;;7.07;100.00
19845;BME280;10083;51.038;7.012;2023-01-15T18:52:28;122201.13;;;7.21;100.00
19845;BME280;10083;51.038;7.012;2023-01-15T18:55:19;122260.59;;;7.17;100.00
19845;BME280;10083;51.038;7.012;2023-01-15T18:57:59;122284.06;;;7.26;100.00
19845;BME280;10083;51.038;7.012;2023-01-15T19:00:38;122354.25;;;7.20;100.00
19845;BME280;10083;51.038;7.012;2023-01-15T19:03:11;122446.34;;;7.18;100.00
19845;BME280;10083;51.038;7.012;2023-01-15T19:05:42;122684.66;;;7.13;100.00
19845;BME280;10083;51.038;7.012;2023-01-15T19:08:13;122879.53;;;7.19;100.00
19845;BME280;10083;51.038;7.012;2023-01-15T19:11:10;123328.28;;;7.16;100.00
19845;BME280;10083;51.038;7.012;2023-01-15T19:13:47;123679.06;;;7.16;100.00
19845;BME280;10083;51.038;7.012;2023-01-15T19:16:40;124135.44;;;7.19;100.00
19845;BME280;10083;51.038;7.012;2023-01-15T19:19:43;124534.47;;;7.16;100.00
19845;BME280;10083;51.038;7.012;2023-01-15T19:22:21;125097.03;;;7.19;100.00
19845;BME280;10083;51.038;7.012;2023-01-15T19:25:20;125080.72;;;7.11;100.00
19845;BME280;10083;51.038;7.012;2023-01-15T19:28:15;125011.78;;;7.02;100.00
19845;BME280;10083;51.038;7.012;2023-01-15T19:31:02;124861.75;;;6.99;100.00
19845;BME280;10083;51.038;7.012;2023-01-15T19:34:21;124067.78;;;6.83;100.00
19845;BME280;10083;51.038;7.012;2023-01-15T19:36:58;123611.16;;;6.84;100.00
19845;BME280;10083;51.038;7.012;2023-01-15T19:40:00;123132.09;;;6.74;100.00
19845;BME280;10083;51.038;7.012;2023-01-15T19:42:53;122768.75;;;6.73;100.00
19845;BME280;10083;51.038;7.012;2023-01-15T19:45:54;122285.59;;;6.71;100.00
19845;BME280;10083;51.038;7.012;2023-01-15T19:50:53;122236.88;;;6.77;100.00
19845;BME280;10083;51.038;7.012;2023-01-15T19:52:26;122242.69;;;6.83;100.00
19845;BME280;10083;51.038;7.012;2023-01-15T19:55:10;122010.41;;;6.88;100.00
19845;BME280;10083;51.038;7.012;2023-01-15T19:58:10;121776.69;;;6.82;100.00
19845;BME280;10083;51.038;7.012;2023-01-15T20:01:04;121657.94;;;6.81;100.00
19845;BME280;10083;51.038;7.012;2023-01-15T20:03:43;121589.44;;;6.82;100.00
19845;BME280;10083;51.038;7.012;2023-01-15T20:06:18;121779.28;;;6.87;100.00
19845;BME280;10083;51.038;7.012;2023-01-15T20:08:56;121707.00;;;6.90;100.00
19845;BME280;10083;51.038;7.012;2023-01-15T20:11:37;121737.44;;;6.93;100.00
19845;BME280;10083;51.038;7.012;2023-01-15T20:14:30;121307.84;;;6.91;100.00
19845;BME280;10083;51.038;7.012;2023-01-15T20:16:59;121688.72;;;6.94;100.00
19845;BME280;10083;51.038;7.012;2023-01-15T20:19:41;121475.25;;;6.93;100.00
19845;BME280;10083;51.038;7.012;2023-01-15T20:22:17;121310.88;;;6.97;100.00
19845;BME280;10083;51.038;7.012;2023-01-15T20:25:20;120833.19;;;6.93;100.00
19845;BME280;10083;51.038;7.012;2023-01-15T20:28:29;121148.84;;;6.93;100.00
19845;BME280;10083;51.038;7.012;2023-01-15T20:31:05;120843.84;;;6.95;100.00
19845;BME280;10083;51.038;7.012;2023-01-15T20:34:30;120607.66;;;6.87;100.00
19845;BME280;10083;51.038;7.012;2023-01-15T20:37:05;120547.78;;;6.87;100.00
19845;BME280;10083;51.038;7.012;2023-01-15T20:39:41;120219.81;;;6.75;100.00
19845;BME280;10083;51.038;7.012;2023-01-15T20:42:12;120323.63;;;6.74;100.00
19845;BME280;10083;51.038;7.012;2023-01-15T20:45:07;119911.41;;;6.72;100.00
19845;BME280;10083;51.038;7.012;2023-01-15T20:47:51;120141.56;;;6.79;100.00
19845;BME280;10083;51.038;7.012;2023-01-15T20:50:50;119921.66;;;6.82;100.00
19845;BME280;10083;51.038;7.012;2023-01-15T20:53:34;119659.13;;;6.81;100.00
19845;BME280;10083;51.038;7.012;2023-01-15T20:56:38;119875.94;;;6.76;100.00
19845;BME280;10083;51.038;7.012;2023-01-15T20:59:26;119727.75;;;6.78;100.00
19845;BME280;10083;51.038;7.012;2023-01-15T21:05:02;119634.28;;;6.96;100.00
19845;BME280;10083;51.038;7.012;2023-01-15T21:07:50;119491.78;;;6.91;100.00
19845;BME280;10083;51.038;7.012;2023-01-15T21:10:44;119549.56;;;6.90;100.00
19845;BME280;10083;51.038;7.012;2023-01-15T21:13:39;119906.63;;;6.95;100.00
19845;BME280;10083;51.038;7.012;2023-01-15T21:16:18;119747.31;;;6.93;100.00
19845;BME280;10083;51.038;7.012;2023-01-15T21:18:52;119287.53;;;6.90;100.00
19845;BME280;10083;51.038;7.012;2023-01-15T21:21:29;119458.06;;;6.91;100.00
19845;BME280;10083;51.038;7.012;2023-01-15T21:24:24;119503.97;;;6.93;100.00
19845;BME280;10083;51.038;7.012;2023-01-15T21:27:21;119348.13;;;6.78;100.00
19845;BME280;10083;51.038;7.012;2023-01-15T21:29:55;119431.69;;;6.65;100.00
19845;BME280;10083;51.038;7.012;2023-01-15T21:32:40;118996.34;;;6.51;100.00
19845;BME280;10083;51.038;7.012;2023-01-15T21:35:12;119177.41;;;6.34;100.00
19845;BME280;10083;51.038;7.012;2023-01-15T21:37:58;118728.97;;;6.29;100.00
19845;BME280;10083;51.038;7.012;2023-01-15T21:40:41;118749.50;;;6.26;100.00
19845;BME280;10083;51.038;7.012;2023-01-15T21:43:37;118715.09;;;6.21;100.00
19845;BME280;10083;51.038;7.012;2023-01-15T21:46:27;119282.88;;;6.20;100.00
19845;BME280;10083;51.038;7.012;2023-01-15T21:49:37;118646.88;;;6.10;99.40
19845;BME280;10083;51.038;7.012;2023-01-15T21:58:57;118711.66;;;5.90;92.75
19845;BME280;10083;51.038;7.012;2023-01-15T22:01:55;119039.38;;;5.92;91.02
19845;BME280;10083;51.038;7.012;2023-01-15T22:04:33;119456.25;;;5.93;89.62
19845;BME280;10083;51.038;7.012;2023-01-15T22:07:21;119665.41;;;5.96;88.70
19845;BME280;10083;51.038;7.012;2023-01-15T22:10:07;119363.53;;;5.89;88.45
19845;BME280;10083;51.038;7.012;2023-01-15T22:12:52;119723.16;;;5.96;87.51
19845;BME280;10083;51.038;7.012;2023-01-15T22:15:46;120073.69;;;5.89;86.60
19845;BME280;10083;51.038;7.012;2023-01-15T22:18:34;120081.22;;;5.88;86.08
19845;BME280;10083;51.038;7.012;2023-01-15T22:21:33;120429.38;;;5.88;85.45
19845;BME280;10083;51.038;7.012;2023-01-15T22:24:10;120344.06;;;5.83;84.85
19845;BME280;10083;51.038;7.012;2023-01-15T22:27:04;121387.09;;;5.80;84.01
19845;BME280;10083;51.038;7.012;2023-01-15T22:30:23;120671.59;;;5.78;83.94
19845;BME280;10083;51.038;7.012;2023-01-15T22:33:21;121021.56;;;5.68;83.55
19845;BME280;10083;51.038;7.012;2023-01-15T22:36:50;121934.09;;;5.74;82.82
19845;BME280;10083;51.038;7.012;2023-01-15T22:39:45;122090.56;;;5.78;82.57
19845;BME280;10083;51.038;7.012;2023-01-15T22:42:43;122527.03;;;5.86;82.26
19845;BME280;10083;51.038;7.012;2023-01-15T22:46:07;122812.41;;;5.95;82.03
19845;BME280;10083;51.038;7.012;2023-01-15T22:49:19;123736.66;;;6.04;81.61
19845;BME280;10083;51.038;7.012;2023-01-15T22:52:31;123780.50;;;6.04;81.53
19845;BME280;10083;51.038;7.012;2023-01-15T22:55:27;124548.28;;;6.06;81.32
19845;BME280;10083;51.038;7.012;2023-01-15T22:58:13;124662.09;;;6.03;81.45
19845;BME280;10083;51.038;7.012;2023-01-15T23:01:08;125207.13;;;6.06;81.30
19845;BME280;10083;51.038;7.012;2023-01-15T23:04:19;125753.06;;;6.14;81.16
19845;BME280;10083;51.038;7.012;2023-01-15T23:10:03;126374.13;;;6.21;81.21
19845;BME280;10083;51.038;7.012;2023-01-15T23:12:38;126222.59;;;6.11;81.45
19845;BME280;10083;51.038;7.012;2023-01-15T23:15:16;126782.19;;;6.18;81.24
19845;BME280;10083;51.038;7.012;2023-01-15T23:21:09;127457.34;;;6.22;81.18
19845;BME280;10083;51.038;7.012;2023-01-15T23:26:48;127264.31;;;6.17;81.40
19845;BME280;10083;51.038;7.012;2023-01-15T23:29:44;128126.91;;;6.27;81.04
19845;BME280;10083;51.038;7.012;2023-01-15T23:32:40;127556.63;;;6.19;81.32
19845;BME280;10083;51.038;7.012;2023-01-15T23:35:55;128040.13;;;6.27;81.09
19845;BME280;10083;51.038;7.012;2023-01-15T23:38:37;127833.16;;;6.23;81.22
19845;BME280;10083;51.038;7.012;2023-01-15T23:41:10;128217.25;;;6.20;81.18
19845;BME280;10083;51.038;7.012;2023-01-15T23:43:46;128124.00;;;6.13;81.21
19845;BME280;10083;51.038;7.012;2023-01-15T23:46:39;128409.25;;;6.12;80.99
19845;BME280;10083;51.038;7.012;2023-01-15T23:49:43;128653.47;;;6.14;80.82
19845;BME280;10083;51.038;7.012;2023-01-15T23:52:13;128963.38;;;6.18;80.66
19845;BME280;10083;51.038;7.012;2023-01-15T23:54:49;129094.41;;;6.22;80.67
19845;BME280;10083;51.038;7.012;2023-01-15T23:57:36;129071.88;;;6.21;80.73
